Time;durP1;ratioP1;P1;durP2;ratioP2;P2;SDS_P1;SDS_P2;PMS_P1;PMS_P2;Temp;Humidity;BMP_temperature;BMP_pressure;BME280_temperature;BME280_humidity;BME280_pressure;Samples;Min_cycle;Max_cycle;Signal;HPM_P1;HPM_P2
2023/08/15 00:01:23;;;;;;;4.93;3.07;;;21.90;99.90;;;;;;6102836;23;20191;-67
2023/08/15 00:03:50;;;;;;;3.57;3.27;;;22.00;99.90;;;;;;6105028;23;20140;-68
2023/08/15 00:06:18;;;;;;;5.53;3.80;;;21.90;99.90;;;;;;6177275;23;20151;-68
2023/08/15 00:08:44;;;;;;;4.33;3.43;;;21.90;99.90;;;;;;6199454;23;20413;-70
2023/08/15 00:11:10;;;;;;;6.07;4.23;;;21.90;99.90;;;;;;6197783;23;20389;-66
2023/08/15 00:13:35;;;;;;;4.40;4.00;;;21.80;99.90;;;;;;6170448;23;20145;-68
2023/08/15 00:16:03;;;;;;;3.30;3.00;;;21.80;99.90;;;;;;6197675;23;20205;-69
2023/08/15 00:18:31;;;;;;;5.70;4.40;;;21.70;99.90;;;;;;6169739;23;20151;-70
2023/08/15 00:20:57;;;;;;;4.03;3.73;;;21.70;99.90;;;;;;6195088;23;20506;-67
2023/08/15 00:23:22;;;;;;;3.70;3.40;;;21.60;99.90;;;;;;6188183;23;20149;-66
2023/08/15 00:25:48;;;;;;;3.33;3.03;;;21.50;99.90;;;;;;6187411;23;20201;-66
2023/08/15 00:28:13;;;;;;;5.13;4.63;;;21.50;99.90;;;;;;6191012;23;20126;-66
2023/08/15 00:30:39;;;;;;;5.00;4.23;;;21.40;99.90;;;;;;6161339;23;20171;-66
2023/08/15 00:33:05;;;;;;;3.77;3.30;;;21.40;99.90;;;;;;6187545;23;20138;-67
2023/08/15 00:35:31;;;;;;;5.10;4.10;;;21.30;99.90;;;;;;6161042;23;20370;-67
2023/08/15 00:37:57;;;;;;;3.90;3.60;;;21.30;99.90;;;;;;6161843;23;20695;-66
2023/08/15 00:40:23;;;;;;;3.67;3.37;;;21.30;99.90;;;;;;6161362;23;20448;-67
2023/08/15 00:42:48;;;;;;;4.23;3.83;;;21.30;99.90;;;;;;6168363;23;20151;-67
2023/08/15 00:45:15;;;;;;;3.73;3.37;;;21.40;99.90;;;;;;6169782;23;20370;-66
2023/08/15 00:47:40;;;;;;;4.13;3.63;;;21.40;99.90;;;;;;6164110;23;20843;-65
2023/08/15 00:50:07;;;;;;;3.57;3.27;;;21.50;99.90;;;;;;6189048;23;20178;-68
2023/08/15 00:52:35;;;;;;;4.60;4.17;;;21.50;99.90;;;;;;6191835;23;20162;-65
2023/08/15 00:55:03;;;;;;;3.90;3.30;;;21.50;99.90;;;;;;6161232;23;20465;-66
2023/08/15 00:57:30;;;;;;;3.70;3.40;;;21.60;99.90;;;;;;6187297;23;20396;-65
2023/08/15 00:59:55;;;;;;;3.70;3.40;;;21.60;99.90;;;;;;6187158;23;20528;-67
2023/08/15 01:02:21;;;;;;;3.60;3.30;;;21.50;99.90;;;;;;6187498;23;20351;-67
2023/08/15 01:04:49;;;;;;;4.10;3.27;;;21.50;99.90;;;;;;6188051;23;20408;-67
2023/08/15 01:07:17;;;;;;;3.90;3.60;;;21.50;99.90;;;;;;6187671;23;20157;-68
2023/08/15 01:09:44;;;;;;;4.30;4.00;;;21.40;99.90;;;;;;6187107;23;20414;-68
2023/08/15 01:12:18;;;;;;;5.10;4.67;;;21.40;99.90;;;;;;6161024;23;20365;-70
2023/08/15 01:15:08;;;;;;;4.70;3.83;;;21.30;99.90;;;;;;6188381;23;20376;-68
2023/08/15 01:18:07;;;;;;;5.43;4.93;;;21.30;99.90;;;;;;6187627;23;20362;-66
2023/08/15 01:20:35;;;;;;;5.00;4.50;;;21.30;99.90;;;;;;6179254;23;20500;-67
2023/08/15 01:23:06;;;;;;;4.57;4.17;;;21.20;99.90;;;;;;6187654;23;20389;-67
2023/08/15 01:25:37;;;;;;;5.40;4.27;;;21.20;99.90;;;;;;6194964;23;20377;-66
2023/08/15 01:28:04;;;;;;;5.37;4.87;;;21.20;99.90;;;;;;6195730;23;20496;-66
2023/08/15 01:30:29;;;;;;;4.90;4.23;;;21.10;99.90;;;;;;6168399;23;20393;-66
2023/08/15 01:33:06;;;;;;;4.40;4.00;;;21.10;99.90;;;;;;6193333;23;20218;-66
2023/08/15 01:35:38;;;;;;;4.30;3.90;;;21.10;99.90;;;;;;6194748;23;20135;-65
2023/08/15 01:38:21;;;;;;;5.13;4.50;;;21.00;99.90;;;;;;6167812;23;20382;-66
2023/08/15 01:40:50;;;;;;;4.93;4.43;;;21.00;99.90;;;;;;6194424;23;20471;-66
2023/08/15 01:43:16;;;;;;;4.60;3.97;;;21.00;99.90;;;;;;6191524;23;20393;-66
2023/08/15 01:45:42;;;;;;;4.70;3.90;;;21.10;99.90;;;;;;6163945;23;20365;-66
2023/08/15 01:48:07;;;;;;;4.00;3.60;;;21.10;99.90;;;;;;6190897;23;20354;-66
2023/08/15 01:50:33;;;;;;;3.80;3.50;;;21.10;99.90;;;;;;6191030;23;20166;-65
2023/08/15 01:52:59;;;;;;;3.63;3.33;;;21.20;99.90;;;;;;6190872;23;20404;-67
2023/08/15 01:55:24;;;;;;;3.60;3.30;;;21.20;99.90;;;;;;6192074;23;20464;-67
2023/08/15 01:57:50;;;;;;;3.00;2.70;;;21.20;99.90;;;;;;6195501;23;20210;-66
2023/08/15 02:00:16;;;;;;;2.80;2.40;;;21.20;99.90;;;;;;6165872;23;20444;-66
2023/08/15 02:02:41;;;;;;;3.23;2.93;;;21.30;99.90;;;;;;6189363;23;20127;-66
2023/08/15 02:05:07;;;;;;;3.03;2.60;;;21.30;99.90;;;;;;6163780;23;20222;-68
2023/08/15 02:07:33;;;;;;;3.10;2.90;;;21.30;99.90;;;;;;6189350;23;20163;-67
2023/08/15 02:09:58;;;;;;;2.80;2.60;;;21.30;99.90;;;;;;6162587;23;20171;-66
2023/08/15 02:12:24;;;;;;;2.97;2.70;;;21.40;99.90;;;;;;6165569;23;20226;-67
2023/08/15 02:14:49;;;;;;;2.47;2.27;;;21.40;99.90;;;;;;6188917;23;20189;-67
2023/08/15 02:17:15;;;;;;;2.43;2.23;;;21.40;99.90;;;;;;6162798;23;20155;-67
2023/08/15 02:19:41;;;;;;;3.60;3.30;;;21.40;99.90;;;;;;6188746;23;20179;-67
2023/08/15 02:22:07;;;;;;;3.90;3.60;;;21.40;99.90;;;;;;6188776;23;20210;-67
2023/08/15 02:24:32;;;;;;;4.53;4.10;;;21.40;99.90;;;;;;6189220;23;20437;-66
2023/08/15 02:26:58;;;;;;;4.70;3.80;;;21.50;99.90;;;;;;6188730;23;20142;-67
2023/08/15 02:29:24;;;;;;;4.80;4.30;;;21.50;99.90;;;;;;6188707;23;20127;-66
2023/08/15 02:31:51;;;;;;;7.90;4.97;;;21.40;99.90;;;;;;6162849;23;20169;-66
2023/08/15 02:34:18;;;;;;;4.97;4.47;;;21.20;99.90;;;;;;6189168;23;20400;-65
2023/08/15 02:36:46;;;;;;;6.67;5.50;;;21.00;99.90;;;;;;6187680;23;20753;-66
2023/08/15 02:39:18;;;;;;;6.70;5.47;;;20.80;99.90;;;;;;6162562;23;20150;-65
2023/08/15 02:41:44;;;;;;;7.23;6.43;;;20.60;99.90;;;;;;6161719;23;20378;-66
2023/08/15 02:44:09;;;;;;;7.30;6.60;;;20.50;99.90;;;;;;6189105;23;20373;-65
2023/08/15 02:46:35;;;;;;;7.10;6.40;;;20.40;99.90;;;;;;6188500;23;20162;-66
2023/08/15 02:49:01;;;;;;;5.50;5.00;;;20.40;99.90;;;;;;6188158;23;20139;-66
2023/08/15 02:51:26;;;;;;;5.53;5.10;;;20.40;99.90;;;;;;6188929;23;20166;-66
2023/08/15 02:53:52;;;;;;;5.40;4.90;;;20.30;99.90;;;;;;6188928;23;20147;-66
2023/08/15 02:56:17;;;;;;;4.57;4.17;;;20.30;99.90;;;;;;6188252;23;20142;-66
2023/08/15 02:58:43;;;;;;;4.37;3.97;;;20.30;99.90;;;;;;6188201;23;20142;-67
2023/08/15 03:01:09;;;;;;;4.70;4.30;;;20.40;99.90;;;;;;6189135;23;20656;-67
2023/08/15 03:03:35;;;;;;;4.50;4.10;;;20.30;99.90;;;;;;6188513;23;20135;-66
2023/08/15 03:06:01;;;;;;;4.47;4.07;;;20.30;99.90;;;;;;6188995;23;20512;-67
2023/08/15 03:08:27;;;;;;;5.10;4.70;;;20.20;99.90;;;;;;6188054;23;20134;-67
2023/08/15 03:10:53;;;;;;;5.53;5.03;;;20.10;99.90;;;;;;6188175;23;20837;-66
2023/08/15 03:13:19;;;;;;;5.50;5.07;;;20.10;99.90;;;;;;6161975;23;20134;-67
2023/08/15 03:15:54;;;;;;;5.80;5.37;;;20.10;99.90;;;;;;6186888;23;20374;-65
2023/08/15 03:18:19;;;;;;;6.03;5.00;;;20.10;99.90;;;;;;6162409;23;20370;-67
2023/08/15 03:20:59;;;;;;;4.57;4.17;;;20.10;99.90;;;;;;6161579;23;20461;-65
2023/08/15 03:23:28;;;;;;;3.07;2.87;;;20.10;99.90;;;;;;6162957;23;20374;-66
2023/08/15 03:25:58;;;;;;;3.10;2.80;;;20.00;99.90;;;;;;6165468;23;20410;-66
2023/08/15 03:28:28;;;;;;;2.80;2.60;;;20.10;99.90;;;;;;6162010;23;20409;-67
2023/08/15 03:30:54;;;;;;;2.67;2.47;;;20.10;99.90;;;;;;6189636;23;20390;-67
2023/08/15 03:33:19;;;;;;;2.80;2.60;;;20.10;99.90;;;;;;6188883;23;20413;-67
2023/08/15 03:35:47;;;;;;;2.83;2.63;;;20.10;99.90;;;;;;6162976;23;20369;-66
2023/08/15 03:38:16;;;;;;;3.73;3.43;;;20.00;99.90;;;;;;6163018;23;20469;-66
2023/08/15 03:40:46;;;;;;;4.20;3.80;;;20.10;99.90;;;;;;6162271;23;20468;-68
2023/08/15 03:43:13;;;;;;;3.80;3.47;;;20.00;99.90;;;;;;6188177;23;20627;-65
2023/08/15 03:45:39;;;;;;;3.30;3.00;;;20.10;99.90;;;;;;6188389;23;20411;-66
2023/08/15 03:48:08;;;;;;;4.33;3.93;;;19.90;99.90;;;;;;6160472;23;20638;-67
2023/08/15 03:50:37;;;;;;;4.60;4.20;;;20.00;99.90;;;;;;6160580;23;20397;-66
2023/08/15 03:53:02;;;;;;;3.43;3.13;;;19.90;99.90;;;;;;6188271;23;20365;-67
2023/08/15 03:55:29;;;;;;;4.60;3.97;;;19.90;99.90;;;;;;6188173;23;20359;-68
2023/08/15 03:57:55;;;;;;;4.53;3.70;;;19.90;99.90;;;;;;6190645;23;20366;-67
2023/08/15 04:00:21;;;;;;;5.30;4.80;;;19.90;99.90;;;;;;6189494;23;20861;-66
2023/08/15 04:02:47;;;;;;;5.00;4.57;;;19.90;99.90;;;;;;6161077;23;20139;-66
2023/08/15 04:05:13;;;;;;;5.53;4.80;;;19.80;99.90;;;;;;6161648;23;20375;-67
2023/08/15 04:07:40;;;;;;;5.77;5.20;;;19.80;99.90;;;;;;6161458;23;20531;-65
2023/08/15 04:10:06;;;;;;;4.57;4.00;;;19.90;99.90;;;;;;6187752;23;20390;-67
2023/08/15 04:12:33;;;;;;;5.00;4.50;;;19.80;99.90;;;;;;6187426;23;20413;-66
2023/08/15 04:14:59;;;;;;;3.70;3.40;;;19.90;99.90;;;;;;6188347;23;20377;-68
2023/08/15 04:17:25;;;;;;;3.77;3.47;;;19.90;99.90;;;;;;6161222;23;20569;-66
2023/08/15 04:19:51;;;;;;;3.00;2.70;;;19.90;99.90;;;;;;6186671;23;20421;-66
2023/08/15 04:22:17;;;;;;;3.53;2.87;;;19.90;99.90;;;;;;6162030;23;20398;-66
2023/08/15 04:24:43;;;;;;;4.20;3.80;;;19.80;99.90;;;;;;6187374;23;20369;-66
2023/08/15 04:27:08;;;;;;;4.47;4.00;;;19.90;99.90;;;;;;6187272;23;20146;-65
2023/08/15 04:29:34;;;;;;;4.50;3.80;;;19.80;99.90;;;;;;6160871;23;20228;-66
2023/08/15 04:32:00;;;;;;;3.90;3.43;;;19.90;99.90;;;;;;6161553;23;20166;-67
2023/08/15 04:34:25;;;;;;;3.80;3.40;;;19.80;99.90;;;;;;6162070;23;20143;-66
2023/08/15 04:36:51;;;;;;;4.03;3.27;;;19.90;99.90;;;;;;6186898;23;20385;-66
2023/08/15 04:39:23;;;;;;;3.20;2.90;;;19.80;99.90;;;;;;6187587;23;20139;-67
2023/08/15 04:41:49;;;;;;;3.40;3.10;;;19.80;99.90;;;;;;6187458;23;20135;-67
2023/08/15 04:44:14;;;;;;;3.20;2.90;;;20.00;99.90;;;;;;6188205;23;20362;-67
2023/08/15 04:46:40;;;;;;;2.40;2.20;;;19.80;99.90;;;;;;6162420;23;20515;-67
2023/08/15 04:49:06;;;;;;;3.80;3.03;;;19.80;99.90;;;;;;6160860;23;20270;-66
2023/08/15 04:51:32;;;;;;;2.80;2.60;;;19.80;99.90;;;;;;6161766;23;20413;-67
2023/08/15 04:53:57;;;;;;;2.90;2.33;;;19.80;99.90;;;;;;6188457;23;20358;-68
2023/08/15 04:56:25;;;;;;;2.63;2.40;;;19.90;99.90;;;;;;6161029;23;20509;-66
2023/08/15 04:58:52;;;;;;;2.60;2.40;;;19.80;99.90;;;;;;6186924;23;20385;-68
2023/08/15 05:01:17;;;;;;;3.13;2.83;;;19.70;99.90;;;;;;6188603;23;20413;-66
2023/08/15 05:03:43;;;;;;;3.73;3.30;;;19.60;99.90;;;;;;6164264;23;20158;-68
2023/08/15 05:06:09;;;;;;;4.20;3.80;;;19.50;99.90;;;;;;6168216;23;20146;-67
2023/08/15 05:08:34;;;;;;;4.30;3.50;;;19.40;99.90;;;;;;6171826;23;20149;-68
2023/08/15 05:11:00;;;;;;;4.20;3.80;;;19.30;99.90;;;;;;6146096;23;20548;-68
2023/08/15 05:13:27;;;;;;;5.50;5.00;;;19.40;99.90;;;;;;6201426;23;20143;-69
2023/08/15 05:15:53;;;;;;;5.90;5.30;;;19.20;99.90;;;;;;6174158;23;20362;-69
2023/08/15 05:18:20;;;;;;;5.70;5.20;;;19.20;99.90;;;;;;6172908;23;20421;-68
2023/08/15 05:20:47;;;;;;;5.80;5.20;;;19.10;99.90;;;;;;6170532;23;20476;-68
2023/08/15 05:23:14;;;;;;;5.00;4.50;;;19.10;99.90;;;;;;6151522;23;20350;-72
2023/08/15 05:25:43;;;;;;;4.83;4.40;;;19.20;99.90;;;;;;6201535;23;20362;-70
2023/08/15 05:28:13;;;;;;;4.20;3.80;;;19.10;99.90;;;;;;6149870;23;20370;-70
2023/08/15 05:30:41;;;;;;;4.13;3.37;;;19.10;99.90;;;;;;6173781;23;20401;-70
2023/08/15 05:33:06;;;;;;;3.00;2.70;;;19.20;99.90;;;;;;6175664;23;20374;-69
2023/08/15 05:35:32;;;;;;;3.83;3.43;;;19.20;99.90;;;;;;6174966;23;20394;-70
2023/08/15 05:37:58;;;;;;;3.10;2.80;;;19.20;99.90;;;;;;6203158;23;20147;-72
2023/08/15 05:40:25;;;;;;;2.90;2.57;;;19.30;99.90;;;;;;6150332;23;20480;-68
2023/08/15 05:42:51;;;;;;;3.10;2.80;;;19.30;99.90;;;;;;6169459;23;20143;-68
2023/08/15 05:45:16;;;;;;;3.00;2.47;;;19.30;99.90;;;;;;6196719;23;20362;-69
2023/08/15 05:47:42;;;;;;;2.20;1.97;;;19.50;99.90;;;;;;6199465;23;20135;-69
2023/08/15 05:50:08;;;;;;;2.50;2.30;;;19.40;99.90;;;;;;6169928;23;20194;-70
2023/08/15 05:52:33;;;;;;;2.20;1.90;;;19.50;99.90;;;;;;6195142;23;20155;-70
2023/08/15 05:54:59;;;;;;;2.03;1.83;;;19.60;99.90;;;;;;6196343;23;20362;-70
2023/08/15 05:57:25;;;;;;;1.90;1.63;;;19.60;99.90;;;;;;6194708;23;20162;-68
2023/08/15 05:59:50;;;;;;;2.03;1.83;;;19.70;99.90;;;;;;6192868;23;20178;-68
2023/08/15 06:02:17;;;;;;;1.50;1.40;;;19.80;99.90;;;;;;6166499;23;20127;-69
2023/08/15 06:04:42;;;;;;;1.80;1.40;;;19.90;99.90;;;;;;6194075;23;20190;-69
2023/08/15 06:07:08;;;;;;;1.50;1.33;;;20.00;99.90;;;;;;6194109;23;20369;-68
2023/08/15 06:09:35;;;;;;;1.63;1.37;;;19.90;99.90;;;;;;6195435;23;20443;-71
2023/08/15 06:12:01;;;;;;;1.33;1.17;;;19.90;99.90;;;;;;6172100;23;20166;-71
2023/08/15 06:14:27;;;;;;;1.50;1.20;;;19.90;99.90;;;;;;6171439;23;20385;-69
2023/08/15 06:16:52;;;;;;;1.47;1.10;;;20.20;99.90;;;;;;6197538;23;20139;-70
2023/08/15 06:19:18;;;;;;;1.10;1.00;;;20.20;99.90;;;;;;6197927;23;20145;-71
2023/08/15 06:21:44;;;;;;;1.30;1.10;;;20.10;99.90;;;;;;6198403;23;20192;-69
2023/08/15 06:24:10;;;;;;;1.40;1.20;;;20.20;99.90;;;;;;6197117;23;20135;-69
2023/08/15 06:26:36;;;;;;;1.20;1.10;;;20.30;99.90;;;;;;6198213;23;20135;-70
2023/08/15 06:29:06;;;;;;;1.20;0.90;;;20.30;99.90;;;;;;6173658;23;20764;-72
2023/08/15 06:31:33;;;;;;;1.37;1.00;;;20.20;99.90;;;;;;6199796;23;20382;-69
2023/08/15 06:33:58;;;;;;;1.20;1.10;;;20.20;99.90;;;;;;6199272;23;20366;-68
2023/08/15 06:36:24;;;;;;;1.40;1.20;;;20.20;99.90;;;;;;6197936;23;20366;-68
2023/08/15 06:38:50;;;;;;;1.83;1.70;;;20.10;99.90;;;;;;6199042;23;20459;-71
2023/08/15 06:41:16;;;;;;;2.30;2.07;;;20.00;99.90;;;;;;6176421;23;20194;-71
2023/08/15 06:43:42;;;;;;;1.83;1.70;;;19.80;99.90;;;;;;6174671;23;20150;-70
2023/08/15 06:46:07;;;;;;;2.10;1.90;;;19.80;99.90;;;;;;6172693;23;20365;-69
2023/08/15 06:48:33;;;;;;;3.07;2.60;;;19.90;99.90;;;;;;6198443;23;20135;-69
2023/08/15 06:50:58;;;;;;;2.40;2.20;;;20.10;99.90;;;;;;6199732;23;20177;-70
2023/08/15 06:53:24;;;;;;;2.47;2.27;;;20.10;99.90;;;;;;6201552;23;20571;-70
2023/08/15 06:55:50;;;;;;;2.00;1.83;;;20.20;99.90;;;;;;6197172;23;20162;-69
2023/08/15 06:58:17;;;;;;;2.17;1.97;;;20.30;99.90;;;;;;6198743;23;20214;-69
2023/08/15 07:00:44;;;;;;;2.03;1.83;;;20.10;99.90;;;;;;6198100;23;20626;-68
2023/08/15 07:03:10;;;;;;;2.43;2.23;;;20.10;99.90;;;;;;6196198;23;20644;-68
2023/08/15 07:05:36;;;;;;;2.27;1.90;;;20.10;99.90;;;;;;6171300;23;20366;-69
2023/08/15 07:08:03;;;;;;;2.20;2.00;;;20.10;99.90;;;;;;6174348;23;20374;-71
2023/08/15 07:10:33;;;;;;;1.87;1.77;;;20.20;99.90;;;;;;6197162;23;20692;-70
2023/08/15 07:12:59;;;;;;;2.30;2.10;;;20.30;99.90;;;;;;6173573;23;20358;-72
2023/08/15 07:15:25;;;;;;;2.83;2.63;;;20.30;99.90;;;;;;6204694;23;20693;-71
2023/08/15 07:17:50;;;;;;;3.00;2.80;;;20.30;99.90;;;;;;6201542;23;20362;-70
2023/08/15 07:20:16;;;;;;;2.23;2.07;;;20.40;99.90;;;;;;6171064;23;20444;-69
2023/08/15 07:22:42;;;;;;;3.70;3.40;;;20.40;99.90;;;;;;6198798;23;20142;-71
2023/08/15 07:25:08;;;;;;;2.90;2.70;;;20.40;99.90;;;;;;6199023;23;20552;-70
2023/08/15 07:27:34;;;;;;;4.03;3.37;;;20.40;99.90;;;;;;6202027;23;20135;-72
2023/08/15 07:30:00;;;;;;;4.23;3.83;;;20.30;99.90;;;;;;6174735;23;20405;-71
2023/08/15 07:32:28;;;;;;;4.73;4.30;;;20.40;99.90;;;;;;6152276;23;20151;-72
2023/08/15 07:34:54;;;;;;;4.60;4.30;;;20.60;99.90;;;;;;6177719;23;20399;-72
2023/08/15 07:37:20;;;;;;;6.33;5.83;;;20.90;99.90;;;;;;6202958;23;20424;-70
2023/08/15 07:39:55;;;;;;;5.67;5.27;;;21.10;99.90;;;;;;6203294;23;20644;-70
2023/08/15 07:42:20;;;;;;;5.03;4.73;;;21.20;99.90;;;;;;6177338;23;20361;-73
2023/08/15 07:44:47;;;;;;;4.90;4.60;;;21.20;99.90;;;;;;6206095;23;20370;-73
2023/08/15 07:47:13;;;;;;;4.10;3.80;;;21.00;99.90;;;;;;6176928;23;20146;-70
2023/08/15 07:49:38;;;;;;;6.40;5.80;;;21.00;99.90;;;;;;6173716;23;20432;-71
2023/08/15 07:52:04;;;;;;;6.20;5.70;;;20.90;99.90;;;;;;6204788;23;20401;-73
2023/08/15 07:54:30;;;;;;;6.50;6.00;;;20.90;99.90;;;;;;6154784;23;20139;-74
2023/08/15 07:56:57;;;;;;;5.90;5.40;;;20.80;99.90;;;;;;6174939;23;20143;-72
2023/08/15 07:59:22;;;;;;;6.10;5.50;;;20.80;99.90;;;;;;6200264;23;20197;-71
2023/08/15 08:01:48;;;;;;;4.87;4.50;;;21.00;99.90;;;;;;6150339;23;20370;-73
2023/08/15 08:04:14;;;;;;;4.07;3.77;;;20.90;99.90;;;;;;6171918;23;20225;-72
2023/08/15 08:06:39;;;;;;;4.23;3.93;;;20.90;99.90;;;;;;6200279;23;20162;-69
2023/08/15 08:09:05;;;;;;;4.67;4.30;;;20.90;99.90;;;;;;6147060;23;20146;-71
2023/08/15 08:11:31;;;;;;;5.63;5.13;;;20.80;99.90;;;;;;6202126;23;20158;-72
2023/08/15 08:13:57;;;;;;;5.33;4.83;;;20.60;99.90;;;;;;6201724;23;20366;-68
2023/08/15 08:16:23;;;;;;;4.90;4.50;;;20.50;99.90;;;;;;6200102;23;20130;-68
2023/08/15 08:18:49;;;;;;;6.20;4.60;;;20.50;99.90;;;;;;6199387;23;20669;-70
2023/08/15 08:21:15;;;;;;;5.87;5.20;;;20.60;99.90;;;;;;6202447;23;20418;-71
2023/08/15 08:23:41;;;;;;;4.80;4.40;;;20.60;99.90;;;;;;6177048;23;20134;-71
2023/08/15 08:26:06;;;;;;;6.57;5.97;;;20.60;99.90;;;;;;6152216;23;20146;-69
2023/08/15 08:28:32;;;;;;;6.30;5.60;;;20.70;99.90;;;;;;6173824;23;20194;-70
2023/08/15 08:30:58;;;;;;;8.27;6.83;;;20.70;99.90;;;;;;6149117;23;20201;-68
2023/08/15 08:33:25;;;;;;;6.53;5.93;;;20.90;99.90;;;;;;6198877;23;20226;-69
2023/08/15 08:35:50;;;;;;;10.80;9.70;;;21.10;99.90;;;;;;6173768;23;20429;-70
2023/08/15 08:38:16;;;;;;;9.43;8.43;;;21.10;99.90;;;;;;6201090;23;20362;-70
2023/08/15 08:40:42;;;;;;;9.73;8.80;;;21.20;99.90;;;;;;6198864;23;20182;-73
2023/08/15 08:43:09;;;;;;;13.57;10.67;;;21.50;99.90;;;;;;6176002;23;20259;-72
2023/08/15 08:45:42;;;;;;;10.37;9.37;;;21.60;99.90;;;;;;6177418;23;20374;-70
2023/08/15 08:48:09;;;;;;;10.80;9.70;;;21.70;99.90;;;;;;6172875;23;20366;-70
2023/08/15 08:50:35;;;;;;;11.60;9.10;;;22.00;99.90;;;;;;6201127;23;20522;-71
2023/08/15 08:53:01;;;;;;;10.73;7.87;;;22.40;99.90;;;;;;6175740;23;20370;-72
2023/08/15 08:55:27;;;;;;;7.10;6.50;;;22.60;99.90;;;;;;6204174;23;20366;-70
2023/08/15 08:57:54;;;;;;;8.00;7.33;;;22.80;99.90;;;;;;6177840;23;20508;-70
2023/08/15 09:00:25;;;;;;;7.93;7.23;;;22.90;99.90;;;;;;6203548;23;20190;-73
2023/08/15 09:02:52;;;;;;;8.87;7.97;;;22.80;99.90;;;;;;6175139;23;20432;-70
2023/08/15 09:05:19;;;;;;;7.50;6.80;;;22.90;99.90;;;;;;6151171;23;20362;-70
2023/08/15 09:07:51;;;;;;;8.07;6.90;;;23.10;99.90;;;;;;6202494;23;20366;-72
2023/08/15 09:10:16;;;;;;;9.63;7.17;;;23.30;99.90;;;;;;6152050;23;20410;-73
2023/08/15 09:12:45;;;;;;;7.40;6.70;;;23.40;99.90;;;;;;6177458;23;20384;-72
2023/08/15 09:15:11;;;;;;;6.93;6.20;;;23.40;99.90;;;;;;6171070;23;20154;-70
2023/08/15 09:17:40;;;;;;;10.03;7.10;;;23.40;99.90;;;;;;6174650;23;20346;-72
2023/08/15 09:20:10;;;;;;;10.53;6.80;;;23.30;99.90;;;;;;6172270;23;20425;-70
2023/08/15 09:22:39;;;;;;;8.40;6.43;;;23.30;99.90;;;;;;6202803;23;20381;-70
2023/08/15 09:25:05;;;;;;;7.83;7.10;;;23.40;99.90;;;;;;6149465;23;20425;-72
2023/08/15 09:27:30;;;;;;;6.90;6.30;;;23.50;99.90;;;;;;6182131;23;20350;-72
2023/08/15 09:29:56;;;;;;;7.07;5.53;;;23.60;99.90;;;;;;6176322;23;20151;-71
2023/08/15 09:32:22;;;;;;;9.30;6.47;;;23.60;99.90;;;;;;6175002;23;20154;-71
2023/08/15 09:34:47;;;;;;;7.03;5.70;;;23.80;99.90;;;;;;6177633;23;20137;-72
2023/08/15 09:37:13;;;;;;;6.53;5.50;;;23.90;99.90;;;;;;6177633;23;20209;-72
2023/08/15 09:39:39;;;;;;;6.50;4.60;;;24.00;99.90;;;;;;6176301;23;20185;-72
2023/08/15 09:42:06;;;;;;;7.17;5.10;;;24.00;99.90;;;;;;6201251;23;20137;-72
2023/08/15 09:44:34;;;;;;;6.00;4.80;;;24.10;99.90;;;;;;6177072;23;20161;-72
2023/08/15 09:47:02;;;;;;;9.07;5.13;;;24.10;99.90;;;;;;6176677;23;20354;-70
2023/08/15 09:49:32;;;;;;;6.20;5.07;;;24.20;99.90;;;;;;6173990;23;20373;-70
2023/08/15 09:51:59;;;;;;;6.10;4.97;;;24.40;99.90;;;;;;6202216;23;20427;-71
2023/08/15 09:54:28;;;;;;;5.03;4.43;;;24.50;99.90;;;;;;6179214;23;20377;-73
2023/08/15 09:56:53;;;;;;;6.60;4.93;;;24.60;99.90;;;;;;6152790;23;20598;-72
2023/08/15 09:59:20;;;;;;;6.43;4.13;;;24.80;99.90;;;;;;6154112;23;20732;-72
2023/08/15 10:01:47;;;;;;;7.20;5.40;;;25.00;99.90;;;;;;6204391;23;20142;-71
2023/08/15 10:04:15;;;;;;;7.13;4.60;;;25.10;99.90;;;;;;6179753;23;20449;-72
2023/08/15 10:06:43;;;;;;;5.67;5.10;;;25.20;99.90;;;;;;6179720;23;20369;-72
2023/08/15 10:09:12;;;;;;;9.27;5.33;;;25.30;99.90;;;;;;6203787;23;20366;-71
2023/08/15 10:11:45;;;;;;;5.90;5.00;;;25.40;99.90;;;;;;6204811;23;20384;-71
2023/08/15 10:14:19;;;;;;;8.70;4.80;;;25.50;99.90;;;;;;6182477;23;20381;-71
2023/08/15 10:16:46;;;;;;;7.60;4.97;;;25.60;99.90;;;;;;6178900;22;20453;-72
2023/08/15 10:19:18;;;;;;;7.30;5.67;;;25.60;99.90;;;;;;6180885;23;20363;-74
2023/08/15 10:21:51;;;;;;;9.93;5.37;;;25.70;99.90;;;;;;6153775;23;20147;-71
2023/08/15 10:24:18;;;;;;;8.20;6.47;;;25.80;99.00;;;;;;6150675;23;20812;-70
2023/08/15 10:26:45;;;;;;;8.37;5.07;;;25.90;98.30;;;;;;6174993;23;20386;-73
2023/08/15 10:29:13;;;;;;;7.43;4.57;;;26.00;96.10;;;;;;6149751;23;20633;-73
2023/08/15 10:31:40;;;;;;;5.63;4.30;;;26.00;93.70;;;;;;6152141;23;20351;-74
2023/08/15 10:34:11;;;;;;;4.70;4.00;;;26.00;93.60;;;;;;6145789;23;20457;-70
2023/08/15 10:36:44;;;;;;;5.83;4.60;;;26.10;92.80;;;;;;6177199;23;20371;-73
2023/08/15 10:39:14;;;;;;;5.33;4.13;;;26.30;91.50;;;;;;6172734;23;20363;-72
2023/08/15 10:41:42;;;;;;;8.47;4.93;;;26.50;90.20;;;;;;6148739;23;20414;-71
2023/08/15 10:44:08;;;;;;;6.70;4.77;;;26.50;87.00;;;;;;6148320;23;20371;-72
2023/08/15 10:46:35;;;;;;;8.13;5.17;;;26.50;85.30;;;;;;6146981;23;20390;-69
2023/08/15 10:49:10;;;;;;;5.50;4.37;;;26.50;85.20;;;;;;6146450;23;20421;-70
2023/08/15 10:51:41;;;;;;;7.93;4.43;;;26.50;83.00;;;;;;6174106;23;20398;-73
2023/08/15 10:54:09;;;;;;;4.93;3.90;;;26.40;83.70;;;;;;6173325;23;20375;-72
2023/08/15 10:56:39;;;;;;;4.00;3.57;;;26.60;84.40;;;;;;6174133;23;20363;-69
2023/08/15 10:59:12;;;;;;;6.43;3.67;;;26.70;83.60;;;;;;6174470;23;20371;-72
2023/08/15 11:01:41;;;;;;;6.17;4.13;;;26.90;80.30;;;;;;6150227;23;20441;-69
2023/08/15 11:04:08;;;;;;;4.67;4.00;;;26.90;78.50;;;;;;6125572;23;20783;-72
2023/08/15 11:06:42;;;;;;;8.67;4.37;;;26.80;76.80;;;;;;6152686;23;20371;-73
2023/08/15 11:09:09;;;;;;;4.50;3.77;;;26.80;77.60;;;;;;6152503;23;20385;-70
2023/08/15 11:11:34;;;;;;;6.77;4.00;;;26.90;78.70;;;;;;6176858;23;20402;-72
2023/08/15 11:14:00;;;;;;;8.07;5.03;;;27.00;77.20;;;;;;6180648;23;20351;-73
2023/08/15 11:16:28;;;;;;;5.50;3.80;;;27.00;76.40;;;;;;6154946;23;20211;-73
2023/08/15 11:18:57;;;;;;;7.33;5.30;;;27.00;76.90;;;;;;6128877;23;20171;-74
2023/08/15 11:21:28;;;;;;;4.70;4.00;;;27.10;75.90;;;;;;6180060;23;20410;-73
2023/08/15 11:24:01;;;;;;;4.07;3.43;;;26.90;76.10;;;;;;6156119;23;20386;-73
2023/08/15 11:26:29;;;;;;;5.43;4.10;;;27.00;75.90;;;;;;6116750;23;20393;-73
2023/08/15 11:28:55;;;;;;;7.37;5.00;;;27.20;76.30;;;;;;6117236;23;20392;-74
2023/08/15 11:31:23;;;;;;;5.53;3.80;;;27.30;75.10;;;;;;6117402;23;20428;-74
2023/08/15 11:33:51;;;;;;;7.37;4.90;;;27.50;75.00;;;;;;6096575;23;20136;-74
2023/08/15 11:36:17;;;;;;;6.20;4.23;;;27.30;72.80;;;;;;6072175;23;20761;-74
2023/08/15 11:38:43;;;;;;;5.03;4.17;;;27.20;73.90;;;;;;6070869;23;20376;-74
2023/08/15 11:41:11;;;;;;;6.90;4.40;;;27.30;74.10;;;;;;6072024;23;20199;-74
2023/08/15 11:43:37;;;;;;;4.47;4.07;;;27.40;73.70;;;;;;6096180;23;20361;-74
2023/08/15 11:46:04;;;;;;;5.03;4.50;;;27.60;73.60;;;;;;6117586;23;20152;-73
2023/08/15 11:48:33;;;;;;;6.40;5.07;;;27.80;72.70;;;;;;6094519;23;20140;-73
2023/08/15 11:50:59;;;;;;;6.70;4.87;;;27.80;71.40;;;;;;6113251;23;20397;-71
2023/08/15 11:53:27;;;;;;;4.97;3.87;;;28.00;71.20;;;;;;6115236;23;20365;-71
2023/08/15 11:55:53;;;;;;;5.73;4.10;;;28.10;71.00;;;;;;6118507;23;20463;-75
2023/08/15 11:58:26;;;;;;;5.30;3.93;;;28.30;70.30;;;;;;6173267;23;20367;-73
2023/08/15 12:01:03;;;;;;;6.13;4.37;;;28.30;69.70;;;;;;6151032;23;20664;-74
2023/08/15 12:03:30;;;;;;;7.10;4.97;;;28.40;69.10;;;;;;6181867;23;20362;-74
2023/08/15 12:05:59;;;;;;;5.23;4.37;;;28.50;68.80;;;;;;6156259;23;20721;-73
2023/08/15 12:08:27;;;;;;;5.40;4.37;;;28.50;69.10;;;;;;6181447;23;20339;-74
2023/08/15 12:10:57;;;;;;;6.07;5.37;;;28.80;68.90;;;;;;6131705;23;20389;-73
2023/08/15 12:13:38;;;;;;;6.90;5.27;;;29.00;67.30;;;;;;6131355;23;20402;-74
2023/08/15 12:16:05;;;;;;;6.67;4.93;;;29.00;65.80;;;;;;6163582;23;20425;-71
2023/08/15 12:18:33;;;;;;;6.40;4.10;;;28.80;66.00;;;;;;6208243;23;20402;-74
2023/08/15 12:21:00;;;;;;;5.63;4.30;;;28.40;66.50;;;;;;6158606;23;20445;-74
2023/08/15 12:23:28;;;;;;;5.57;5.07;;;28.40;67.40;;;;;;6210544;23;20402;-74
2023/08/15 12:26:11;;;;;;;5.53;4.90;;;28.50;67.60;;;;;;6184066;23;20389;-73
2023/08/15 12:28:37;;;;;;;5.87;5.30;;;28.60;67.90;;;;;;6160246;23;20405;-74
2023/08/15 12:31:03;;;;;;;5.63;4.63;;;28.80;66.30;;;;;;6133126;23;20410;-72
2023/08/15 12:33:33;;;;;;;7.87;5.37;;;29.00;65.40;;;;;;6183162;23;20448;-75
2023/08/15 12:36:01;;;;;;;4.80;4.10;;;28.80;65.20;;;;;;6177608;23;20139;-75
2023/08/15 12:38:28;;;;;;;6.30;5.10;;;28.80;65.90;;;;;;6127347;23;20942;-75
2023/08/15 12:40:54;;;;;;;6.50;5.40;;;28.80;65.70;;;;;;6118027;23;20196;-75
2023/08/15 12:43:19;;;;;;;7.10;6.40;;;28.90;66.30;;;;;;6095526;23;20436;-76
2023/08/15 12:45:46;;;;;;;8.17;6.03;;;28.70;65.60;;;;;;6096295;23;20168;-76